Time;durP1;ratioP1;P1;durP2;ratioP2;P2;SDS_P1;SDS_P2;PMS_P1;PMS_P2;Temp;Humidity;BMP_temperature;BMP_pressure;BME280_temperature;BME280_humidity;BME280_pressure;Samples;Min_cycle;Max_cycle;Signal;HPM_P1;HPM_P2
2022/05/08 00:01:03;;;;;;;0.70;0.60;;;;;;;;;;5088012;28;20438;-76
2022/05/08 00:03:31;;;;;;;0.70;0.60;;;;;;;;;;5071383;28;20810;-77
2022/05/08 00:06:00;;;;;;;0.70;0.63;;;;;;;;;;5072068;28;20554;-78
2022/05/08 00:08:28;;;;;;;0.70;0.60;;;;;;;;;;5072071;28;20800;-77
2022/05/08 00:10:56;;;;;;;0.70;0.60;;;;;;;;;;5071010;28;20450;-77
2022/05/08 00:13:23;;;;;;;1.63;1.53;;;;;;;;;;5089776;28;20521;-77
2022/05/08 00:15:49;;;;;;;0.70;0.60;;;;;;;;;;5082695;28;20434;-77
2022/05/08 00:18:16;;;;;;;0.73;0.67;;;;;;;;;;5054188;28;20476;-77
2022/05/08 00:20:44;;;;;;;0.70;0.60;;;;;;;;;;5070114;28;20501;-77
2022/05/08 00:23:11;;;;;;;0.80;0.80;;;;;;;;;;5072262;28;20485;-77
2022/05/08 00:25:39;;;;;;;1.53;1.43;;;;;;;;;;5054565;28;20876;-76
2022/05/08 00:28:07;;;;;;;0.70;0.60;;;;;;;;;;5070632;28;20411;-76
2022/05/08 00:30:36;;;;;;;0.70;0.60;;;;;;;;;;5071081;28;20433;-77
2022/05/08 00:33:02;;;;;;;0.70;0.60;;;;;;;;;;5072698;28;20950;-77
2022/05/08 00:35:29;;;;;;;0.70;0.60;;;;;;;;;;5071070;28;20482;-77
2022/05/08 00:37:59;;;;;;;0.83;0.83;;;;;;;;;;5072421;28;20950;-77
2022/05/08 00:40:25;;;;;;;0.70;0.60;;;;;;;;;;5052848;28;20534;-77
2022/05/08 00:42:53;;;;;;;0.70;0.60;;;;;;;;;;5073430;28;20581;-77
2022/05/08 00:45:19;;;;;;;0.63;0.60;;;;;;;;;;5074112;28;20995;-77
2022/05/08 00:47:46;;;;;;;0.70;0.60;;;;;;;;;;5057858;28;20455;-77
2022/05/08 00:50:14;;;;;;;0.93;0.90;;;;;;;;;;5074883;28;20493;-77
2022/05/08 00:52:41;;;;;;;0.67;0.60;;;;;;;;;;5090876;28;21039;-77
2022/05/08 00:55:10;;;;;;;0.90;0.90;;;;;;;;;;5076670;28;20465;-77
2022/05/08 00:57:42;;;;;;;0.70;0.60;;;;;;;;;;5074594;28;20901;-77
2022/05/08 01:00:10;;;;;;;0.97;0.90;;;;;;;;;;5074425;28;20914;-77
2022/05/08 01:02:38;;;;;;;0.70;0.60;;;;;;;;;;5074155;28;20998;-77
2022/05/08 01:05:05;;;;;;;0.70;0.60;;;;;;;;;;5075555;28;20431;-78
2022/05/08 01:07:33;;;;;;;0.70;0.70;;;;;;;;;;5075549;28;20509;-77
2022/05/08 01:10:01;;;;;;;0.70;0.60;;;;;;;;;;5091864;28;20962;-77
2022/05/08 01:12:32;;;;;;;0.60;0.60;;;;;;;;;;5084945;28;20946;-77
2022/05/08 01:15:09;;;;;;;0.70;0.60;;;;;;;;;;5088719;28;20440;-77
2022/05/08 01:17:36;;;;;;;0.70;0.60;;;;;;;;;;5090396;28;20437;-77
2022/05/08 01:20:04;;;;;;;0.70;0.60;;;;;;;;;;5074554;28;20447;-76
2022/05/08 01:22:34;;;;;;;0.70;0.53;;;;;;;;;;5079200;28;20506;-76
2022/05/08 01:25:02;;;;;;;1.47;1.37;;;;;;;;;;5074373;28;20997;-78
2022/05/08 01:27:28;;;;;;;0.70;0.60;;;;;;;;;;5058282;28;20529;-78
2022/05/08 01:29:55;;;;;;;0.60;0.60;;;;;;;;;;5074816;28;20437;-78
2022/05/08 01:32:23;;;;;;;0.70;0.60;;;;;;;;;;5074267;28;20466;-78
2022/05/08 01:34:50;;;;;;;0.70;0.60;;;;;;;;;;5053178;28;20557;-78
2022/05/08 01:37:17;;;;;;;0.60;0.50;;;;;;;;;;5053889;28;20447;-78
2022/05/08 01:39:45;;;;;;;0.90;0.90;;;;;;;;;;5056482;28;20438;-77
2022/05/08 01:42:12;;;;;;;0.87;0.87;;;;;;;;;;5082279;28;20847;-77
2022/05/08 01:44:39;;;;;;;0.67;0.60;;;;;;;;;;5094473;28;20452;-77
2022/05/08 01:49:51;;;;;;;0.70;0.60;;;;;;;;;;5095271;28;20413;-77
2022/05/08 01:52:19;;;;;;;0.70;0.60;;;;;;;;;;5075829;28;20973;-77
2022/05/08 01:54:47;;;;;;;0.70;0.60;;;;;;;;;;5056739;28;20447;-77
2022/05/08 01:57:14;;;;;;;0.70;0.60;;;;;;;;;;5072222;28;20794;-78
2022/05/08 01:59:41;;;;;;;0.60;0.60;;;;;;;;;;5056350;28;20801;-78
2022/05/08 02:02:09;;;;;;;0.70;0.60;;;;;;;;;;5090616;28;20446;-77
2022/05/08 02:04:37;;;;;;;0.70;0.57;;;;;;;;;;5074028;28;21048;-77
2022/05/08 02:07:07;;;;;;;0.70;0.60;;;;;;;;;;5073697;28;20445;-77
2022/05/08 02:09:37;;;;;;;0.70;0.60;;;;;;;;;;5056093;28;20508;-77
2022/05/08 02:12:07;;;;;;;0.70;0.60;;;;;;;;;;5080645;28;20476;-77
2022/05/08 02:14:34;;;;;;;0.70;0.60;;;;;;;;;;5072067;28;20545;-78
2022/05/08 02:17:03;;;;;;;0.70;0.63;;;;;;;;;;5055156;28;20452;-77
2022/05/08 02:19:29;;;;;;;0.70;0.60;;;;;;;;;;5074285;28;20899;-78
2022/05/08 02:21:56;;;;;;;1.00;0.80;;;;;;;;;;5075078;28;20483;-76
2022/05/08 02:24:23;;;;;;;1.10;0.93;;;;;;;;;;5074343;28;20465;-78
2022/05/08 02:26:52;;;;;;;0.70;0.60;;;;;;;;;;5071833;28;20806;-77
2022/05/08 02:29:21;;;;;;;1.37;1.27;;;;;;;;;;5072743;28;20910;-78
2022/05/08 02:31:48;;;;;;;0.60;0.60;;;;;;;;;;5073453;28;20803;-78
2022/05/08 02:34:16;;;;;;;0.60;0.60;;;;;;;;;;5072717;28;20482;-78
2022/05/08 02:36:45;;;;;;;0.70;0.67;;;;;;;;;;5071648;28;20803;-78
2022/05/08 02:39:12;;;;;;;0.90;0.80;;;;;;;;;;5089795;28;21019;-78
2022/05/08 02:41:39;;;;;;;1.10;1.00;;;;;;;;;;5069807;28;20951;-78
2022/05/08 02:44:08;;;;;;;0.60;0.50;;;;;;;;;;5053376;28;20482;-78
2022/05/08 02:46:37;;;;;;;0.60;0.60;;;;;;;;;;5088544;28;20450;-77
2022/05/08 02:49:05;;;;;;;0.60;0.60;;;;;;;;;;5055057;28;20506;-78
2022/05/08 02:51:35;;;;;;;0.70;0.60;;;;;;;;;;5052833;28;20498;-78
2022/05/08 02:54:03;;;;;;;0.70;0.60;;;;;;;;;;5052216;28;20541;-78
2022/05/08 02:59:17;;;;;;;0.70;0.60;;;;;;;;;;5054601;28;20506;-77
2022/05/08 03:01:48;;;;;;;1.93;1.83;;;;;;;;;;5053550;28;20808;-78
2022/05/08 03:04:17;;;;;;;0.70;0.63;;;;;;;;;;5069385;28;20477;-77
2022/05/08 03:06:44;;;;;;;0.70;0.60;;;;;;;;;;5072173;28;20820;-79
2022/05/08 03:09:12;;;;;;;0.60;0.60;;;;;;;;;;5073912;28;21000;-78
2022/05/08 03:11:39;;;;;;;0.70;0.70;;;;;;;;;;5053881;28;20449;-79
2022/05/08 03:14:06;;;;;;;0.70;0.60;;;;;;;;;;5053471;28;20877;-78
2022/05/08 03:16:33;;;;;;;0.60;0.60;;;;;;;;;;5073229;28;20443;-79
2022/05/08 03:19:02;;;;;;;0.63;0.60;;;;;;;;;;5071720;28;20537;-78
2022/05/08 03:21:34;;;;;;;0.60;0.60;;;;;;;;;;5055028;28;20463;-77
2022/05/08 03:24:02;;;;;;;0.70;0.70;;;;;;;;;;5054815;28;20534;-78
2022/05/08 03:26:31;;;;;;;0.60;0.50;;;;;;;;;;5055725;28;20942;-78
2022/05/08 03:28:59;;;;;;;0.60;0.60;;;;;;;;;;5073140;28;20559;-78
2022/05/08 03:31:29;;;;;;;0.70;0.70;;;;;;;;;;5073053;28;20441;-79
2022/05/08 03:34:02;;;;;;;1.10;1.00;;;;;;;;;;5072759;28;20418;-78
2022/05/08 03:36:32;;;;;;;0.70;0.60;;;;;;;;;;5071129;28;20478;-78
2022/05/08 03:39:01;;;;;;;0.70;0.60;;;;;;;;;;5071406;28;20901;-78
2022/05/08 03:41:30;;;;;;;0.70;0.60;;;;;;;;;;5061582;28;20975;-79
2022/05/08 03:44:02;;;;;;;0.80;0.80;;;;;;;;;;5077578;28;20581;-78
2022/05/08 03:46:34;;;;;;;0.67;0.60;;;;;;;;;;5060885;28;20441;-79
2022/05/08 03:49:03;;;;;;;0.70;0.60;;;;;;;;;;5073821;28;20967;-79
2022/05/08 03:51:31;;;;;;;0.70;0.60;;;;;;;;;;5091904;28;20849;-78
2022/05/08 03:54:02;;;;;;;0.70;0.53;;;;;;;;;;5074207;28;20447;-77
2022/05/08 03:56:34;;;;;;;0.70;0.50;;;;;;;;;;5074806;28;20418;-79
2022/05/08 03:59:01;;;;;;;0.70;0.50;;;;;;;;;;5071724;28;20415;-79
2022/05/08 04:01:28;;;;;;;0.70;0.60;;;;;;;;;;5054791;28;20441;-77
2022/05/08 04:03:55;;;;;;;0.70;0.60;;;;;;;;;;5071437;28;20455;-78
2022/05/08 04:06:23;;;;;;;0.67;0.60;;;;;;;;;;5072594;28;20535;-79
2022/05/08 04:08:51;;;;;;;1.10;0.80;;;;;;;;;;5071838;28;20939;-78
2022/05/08 04:11:17;;;;;;;0.67;0.60;;;;;;;;;;5072712;28;20441;-78
2022/05/08 04:13:44;;;;;;;0.60;0.50;;;;;;;;;;5077278;28;20492;-78
2022/05/08 04:16:17;;;;;;;0.70;0.60;;;;;;;;;;5070165;28;20457;-78
2022/05/08 04:18:44;;;;;;;0.70;0.60;;;;;;;;;;5071781;28;20469;-78
2022/05/08 04:21:11;;;;;;;0.70;0.70;;;;;;;;;;5058031;28;20529;-78
2022/05/08 04:26:25;;;;;;;0.70;0.60;;;;;;;;;;5075459;28;20436;-78
2022/05/08 04:28:52;;;;;;;0.70;0.60;;;;;;;;;;5075351;28;20474;-78
2022/05/08 04:31:21;;;;;;;0.70;0.60;;;;;;;;;;5074180;28;20446;-78
2022/05/08 04:33:48;;;;;;;0.70;0.60;;;;;;;;;;5073766;28;20444;-78
2022/05/08 04:36:16;;;;;;;0.70;0.50;;;;;;;;;;5074610;28;20438;-78
2022/05/08 04:38:44;;;;;;;1.53;0.80;;;;;;;;;;5058442;28;20473;-77
2022/05/08 04:41:11;;;;;;;0.70;0.60;;;;;;;;;;5074882;28;20426;-78
2022/05/08 04:43:39;;;;;;;0.97;0.97;;;;;;;;;;5054340;28;20524;-78
2022/05/08 04:46:06;;;;;;;0.70;0.60;;;;;;;;;;5054973;28;20580;-77
2022/05/08 04:48:33;;;;;;;0.77;0.77;;;;;;;;;;5057342;28;20447;-79
2022/05/08 04:51:01;;;;;;;0.73;0.73;;;;;;;;;;5071852;28;20463;-78
2022/05/08 04:53:30;;;;;;;0.67;0.50;;;;;;;;;;5074931;28;20906;-78
2022/05/08 04:55:59;;;;;;;0.70;0.60;;;;;;;;;;5076091;28;20430;-76
2022/05/08 04:58:29;;;;;;;0.70;0.70;;;;;;;;;;5058397;28;20445;-78
2022/05/08 05:00:57;;;;;;;1.27;0.73;;;;;;;;;;5074569;28;20495;-78
2022/05/08 05:03:25;;;;;;;0.70;0.67;;;;;;;;;;5074581;28;20710;-78
2022/05/08 05:05:51;;;;;;;0.60;0.60;;;;;;;;;;5076032;28;20467;-78
2022/05/08 05:08:20;;;;;;;0.70;0.70;;;;;;;;;;5057578;28;20435;-79
2022/05/08 05:10:48;;;;;;;0.70;0.60;;;;;;;;;;5074308;28;20411;-78
2022/05/08 05:13:17;;;;;;;0.70;0.70;;;;;;;;;;5073721;28;20444;-77
2022/05/08 05:15:44;;;;;;;0.70;0.60;;;;;;;;;;5061165;28;21011;-78
2022/05/08 05:18:11;;;;;;;0.70;0.63;;;;;;;;;;5075319;28;20411;-78
2022/05/08 05:20:38;;;;;;;0.90;0.90;;;;;;;;;;5074131;28;20537;-77
2022/05/08 05:23:05;;;;;;;0.70;0.60;;;;;;;;;;5074682;28;20479;-76
2022/05/08 05:25:32;;;;;;;0.70;0.60;;;;;;;;;;5073805;28;20478;-78
2022/05/08 05:27:59;;;;;;;0.70;0.70;;;;;;;;;;5073175;28;20438;-77
2022/05/08 05:30:31;;;;;;;0.70;0.60;;;;;;;;;;5053129;28;20455;-77
2022/05/08 05:32:58;;;;;;;0.70;0.60;;;;;;;;;;5054689;28;20433;-77
2022/05/08 05:35:25;;;;;;;0.70;0.60;;;;;;;;;;5061769;28;20832;-78
2022/05/08 05:37:51;;;;;;;0.70;0.70;;;;;;;;;;5073640;28;20476;-78
2022/05/08 05:40:18;;;;;;;1.07;0.97;;;;;;;;;;5073959;28;20418;-78
2022/05/08 05:42:45;;;;;;;0.70;0.70;;;;;;;;;;5076901;28;20455;-79
2022/05/08 05:45:11;;;;;;;0.70;0.57;;;;;;;;;;5056210;28;20694;-78
2022/05/08 05:47:49;;;;;;;0.70;0.60;;;;;;;;;;5072616;28;20481;-76
2022/05/08 05:50:16;;;;;;;1.43;1.33;;;;;;;;;;5074122;28;20462;-78
2022/05/08 05:52:43;;;;;;;0.70;0.60;;;;;;;;;;5072789;28;21038;-78
2022/05/08 05:55:10;;;;;;;0.70;0.60;;;;;;;;;;5073699;28;20512;-78
2022/05/08 05:57:38;;;;;;;0.70;0.60;;;;;;;;;;5073029;28;20493;-78
2022/05/08 06:00:06;;;;;;;0.70;0.70;;;;;;;;;;5073735;28;20438;-77
2022/05/08 06:02:38;;;;;;;0.70;0.60;;;;;;;;;;5074762;28;20435;-75
2022/05/08 06:05:06;;;;;;;0.70;0.60;;;;;;;;;;5090024;28;20550;-77
2022/05/08 06:07:33;;;;;;;0.70;0.60;;;;;;;;;;5088322;28;20467;-78
2022/05/08 06:10:00;;;;;;;1.20;1.10;;;;;;;;;;5073987;28;20467;-76
2022/05/08 06:12:29;;;;;;;0.70;0.60;;;;;;;;;;5089059;28;20437;-77
2022/05/08 06:14:56;;;;;;;0.70;0.60;;;;;;;;;;5057097;28;20477;-75
2022/05/08 06:17:23;;;;;;;0.70;0.60;;;;;;;;;;5073789;28;20820;-78
2022/05/08 06:19:51;;;;;;;0.70;0.70;;;;;;;;;;5090019;28;20477;-76
2022/05/08 06:22:19;;;;;;;0.70;0.60;;;;;;;;;;5074649;28;20447;-74
2022/05/08 06:24:46;;;;;;;0.70;0.60;;;;;;;;;;5075020;28;20454;-77
2022/05/08 06:27:13;;;;;;;0.70;0.60;;;;;;;;;;5072417;28;20446;-77
2022/05/08 06:29:39;;;;;;;0.80;0.80;;;;;;;;;;5075502;28;20443;-78
2022/05/08 06:32:07;;;;;;;1.00;1.00;;;;;;;;;;5072992;28;20454;-77
2022/05/08 06:34:34;;;;;;;0.70;0.60;;;;;;;;;;5075816;28;20415;-77
2022/05/08 06:37:01;;;;;;;0.90;0.90;;;;;;;;;;5074653;28;20460;-78
2022/05/08 06:39:30;;;;;;;1.30;1.20;;;;;;;;;;5056486;28;20827;-77
2022/05/08 06:41:57;;;;;;;0.70;0.70;;;;;;;;;;5060924;28;20448;-78
2022/05/08 06:44:29;;;;;;;0.70;0.70;;;;;;;;;;5094036;28;20436;-77
2022/05/08 06:46:57;;;;;;;1.03;0.93;;;;;;;;;;5094355;28;20439;-78
2022/05/08 06:49:24;;;;;;;0.90;0.90;;;;;;;;;;5074728;28;20450;-78
2022/05/08 06:51:51;;;;;;;0.70;0.60;;;;;;;;;;5071607;28;20458;-77
2022/05/08 06:54:19;;;;;;;0.70;0.60;;;;;;;;;;5056209;28;20509;-78
2022/05/08 06:56:47;;;;;;;1.10;1.00;;;;;;;;;;5073395;28;20459;-77
2022/05/08 07:02:07;;;;;;;2.60;0.80;;;;;;;;;;5072430;28;20467;-78
2022/05/08 07:04:37;;;;;;;0.70;0.60;;;;;;;;;;5088646;28;20449;-77
2022/05/08 07:07:04;;;;;;;0.70;0.60;;;;;;;;;;5070828;28;21028;-77
2022/05/08 07:09:32;;;;;;;0.70;0.60;;;;;;;;;;5071486;28;20951;-77
2022/05/08 07:12:03;;;;;;;0.70;0.60;;;;;;;;;;5054644;28;20461;-78
2022/05/08 07:14:30;;;;;;;0.70;0.63;;;;;;;;;;5082478;28;20460;-76
2022/05/08 07:16:57;;;;;;;0.70;0.70;;;;;;;;;;5072031;28;20941;-77
2022/05/08 07:19:24;;;;;;;0.70;0.70;;;;;;;;;;5072070;28;20465;-78
2022/05/08 07:21:51;;;;;;;0.83;0.83;;;;;;;;;;5056821;28;20507;-79
2022/05/08 07:24:20;;;;;;;0.80;0.70;;;;;;;;;;5072052;28;20443;-78
2022/05/08 07:26:47;;;;;;;0.70;0.70;;;;;;;;;;5070942;28;20555;-78
2022/05/08 07:29:19;;;;;;;0.77;0.70;;;;;;;;;;5076037;28;20427;-76
2022/05/08 07:31:45;;;;;;;0.80;0.70;;;;;;;;;;5056017;28;20445;-79
2022/05/08 07:37:00;;;;;;;0.80;0.70;;;;;;;;;;5072931;28;20475;-78
2022/05/08 07:39:27;;;;;;;0.70;0.60;;;;;;;;;;5072324;28;20434;-77
2022/05/08 07:41:56;;;;;;;0.70;0.67;;;;;;;;;;5076824;28;20450;-77
2022/05/08 07:44:25;;;;;;;0.80;0.80;;;;;;;;;;5053921;28;20477;-77
2022/05/08 07:46:52;;;;;;;1.07;0.97;;;;;;;;;;5052801;28;21092;-78
2022/05/08 07:49:19;;;;;;;0.80;0.70;;;;;;;;;;5047748;28;20445;-78
2022/05/08 07:51:46;;;;;;;0.80;0.70;;;;;;;;;;5074519;28;20549;-79
2022/05/08 07:54:14;;;;;;;0.80;0.70;;;;;;;;;;5075100;28;20438;-76
2022/05/08 07:56:41;;;;;;;1.07;0.97;;;;;;;;;;5076495;28;20524;-77
2022/05/08 07:59:13;;;;;;;0.80;0.80;;;;;;;;;;5060901;28;20441;-77
2022/05/08 08:01:43;;;;;;;0.80;0.80;;;;;;;;;;5078138;28;20509;-78
2022/05/08 08:04:18;;;;;;;0.70;0.70;;;;;;;;;;5080872;28;20435;-78
2022/05/08 08:06:46;;;;;;;0.73;0.70;;;;;;;;;;5063043;28;20812;-77
2022/05/08 08:09:12;;;;;;;1.20;1.03;;;;;;;;;;5091495;28;20442;-78
2022/05/08 08:11:41;;;;;;;4.87;1.43;;;;;;;;;;5081114;28;20451;-77
2022/05/08 08:14:08;;;;;;;0.70;0.70;;;;;;;;;;5076014;28;20449;-78
2022/05/08 08:16:57;;;;;;;0.77;0.73;;;;;;;;;;5074044;28;20415;-77
2022/05/08 08:19:25;;;;;;;0.70;0.70;;;;;;;;;;5076450;28;20431;-76
2022/05/08 08:21:52;;;;;;;0.90;0.90;;;;;;;;;;5075074;28;20523;-77
2022/05/08 08:24:19;;;;;;;0.80;0.70;;;;;;;;;;5078189;28;20463;-77
2022/05/08 08:26:46;;;;;;;0.80;0.80;;;;;;;;;;5076211;28;20505;-77
2022/05/08 08:29:14;;;;;;;1.13;1.03;;;;;;;;;;5059244;28;20453;-77
2022/05/08 08:31:41;;;;;;;0.80;0.70;;;;;;;;;;5060997;28;20454;-77
2022/05/08 08:34:09;;;;;;;0.70;0.63;;;;;;;;;;5058819;28;20918;-78
2022/05/08 08:36:36;;;;;;;0.80;0.70;;;;;;;;;;5056982;28;20461;-77
2022/05/08 08:39:03;;;;;;;1.00;1.00;;;;;;;;;;5076152;28;20432;-77
2022/05/08 08:41:34;;;;;;;0.90;0.80;;;;;;;;;;5061329;28;20808;-77
2022/05/08 08:49:41;;;;;;;0.80;0.70;;;;;;;;;;5072127;28;20442;-78
2022/05/08 08:52:08;;;;;;;0.90;0.90;;;;;;;;;;5074722;28;20492;-75
2022/05/08 08:54:37;;;;;;;0.80;0.70;;;;;;;;;;5076863;28;20449;-76
2022/05/08 08:57:03;;;;;;;0.80;0.60;;;;;;;;;;5056019;28;20467;-76
2022/05/08 08:59:31;;;;;;;0.80;0.70;;;;;;;;;;5076010;28;20423;-76
2022/05/08 09:01:58;;;;;;;0.80;0.70;;;;;;;;;;5076571;28;21037;-77
2022/05/08 09:04:25;;;;;;;0.80;0.80;;;;;;;;;;5077402;28;20411;-78
2022/05/08 09:06:53;;;;;;;0.80;0.70;;;;;;;;;;5076140;28;20466;-77
2022/05/08 09:09:22;;;;;;;0.80;0.70;;;;;;;;;;5074136;28;20554;-77
2022/05/08 09:11:49;;;;;;;0.93;0.90;;;;;;;;;;5074425;28;20442;-76
2022/05/08 09:14:26;;;;;;;0.90;0.70;;;;;;;;;;5058512;28;20432;-76
2022/05/08 09:16:54;;;;;;;0.80;0.70;;;;;;;;;;5061645;28;21067;-78
2022/05/08 09:19:29;;;;;;;0.70;0.60;;;;;;;;;;5075161;28;20522;-79
2022/05/08 09:22:00;;;;;;;0.70;0.70;;;;;;;;;;5075301;28;20856;-76
2022/05/08 09:24:28;;;;;;;0.70;0.70;;;;;;;;;;5056787;28;20439;-76
2022/05/08 09:27:08;;;;;;;0.80;0.80;;;;;;;;;;5074853;28;20455;-78
2022/05/08 09:29:35;;;;;;;0.80;0.70;;;;;;;;;;5075703;28;20841;-77
2022/05/08 09:32:34;;;;;;;0.80;0.70;;;;;;;;;;5059728;28;21010;-79
2022/05/08 09:35:02;;;;;;;0.80;0.60;;;;;;;;;;5073306;28;20443;-79
2022/05/08 09:37:31;;;;;;;0.70;0.70;;;;;;;;;;5075071;28;20536;-78
2022/05/08 09:40:14;;;;;;;0.80;0.70;;;;;;;;;;5075524;28;20423;-77
2022/05/08 09:42:41;;;;;;;0.80;0.70;;;;;;;;;;5081585;28;20454;-78
2022/05/08 09:45:09;;;;;;;0.80;0.80;;;;;;;;;;5091541;28;20470;-79
2022/05/08 09:47:42;;;;;;;0.90;0.80;;;;;;;;;;5090072;28;20455;-78
2022/05/08 09:50:11;;;;;;;1.10;0.87;;;;;;;;;;5072419;28;20498;-79
2022/05/08 09:52:41;;;;;;;0.80;0.70;;;;;;;;;;5075508;28;20475;-77
2022/05/08 09:55:09;;;;;;;0.80;0.80;;;;;;;;;;5074762;28;20485;-78
2022/05/08 09:57:36;;;;;;;0.70;0.70;;;;;;;;;;5074779;28;20862;-78
2022/05/08 10:00:04;;;;;;;0.70;0.67;;;;;;;;;;5075404;28;20405;-77
2022/05/08 10:02:38;;;;;;;0.70;0.60;;;;;;;;;;5076024;28;20427;-78
2022/05/08 10:05:05;;;;;;;0.70;0.67;;;;;;;;;;5073769;28;20394;-77
2022/05/08 10:07:34;;;;;;;0.77;0.67;;;;;;;;;;5071673;28;20438;-77
2022/05/08 10:15:45;;;;;;;0.80;0.70;;;;;;;;;;5068523;28;20390;-78
2022/05/08 10:18:27;;;;;;;0.80;0.70;;;;;;;;;;5057198;28;20454;-77
2022/05/08 10:21:01;;;;;;;0.80;0.70;;;;;;;;;;5076326;28;20455;-78
2022/05/08 10:23:33;;;;;;;0.80;0.60;;;;;;;;;;5057004;28;20443;-77
2022/05/08 10:26:17;;;;;;;0.70;0.60;;;;;;;;;;5072120;28;20459;-77
2022/05/08 10:29:04;;;;;;;0.70;0.60;;;;;;;;;;5079219;28;20416;-78
2022/05/08 10:31:45;;;;;;;0.80;0.70;;;;;;;;;;5074113;28;20535;-78
2022/05/08 10:34:13;;;;;;;0.80;0.60;;;;;;;;;;5077092;28;20947;-79
2022/05/08 10:36:40;;;;;;;1.00;0.70;;;;;;;;;;5077170;28;20474;-78
2022/05/08 10:39:25;;;;;;;0.80;0.80;;;;;;;;;;5073838;28;20416;-78
2022/05/08 10:41:55;;;;;;;0.87;0.70;;;;;;;;;;5056321;28;20505;-79
2022/05/08 10:44:35;;;;;;;0.80;0.70;;;;;;;;;;5073178;28;20989;-76
2022/05/08 10:47:21;;;;;;;0.80;0.60;;;;;;;;;;5074313;28;20451;-77
2022/05/08 10:49:49;;;;;;;0.90;0.70;;;;;;;;;;5073027;28;20454;-78
2022/05/08 10:52:16;;;;;;;0.70;0.60;;;;;;;;;;5074409;28;20458;-78
2022/05/08 10:54:54;;;;;;;0.70;0.60;;;;;;;;;;5073897;28;20492;-79
2022/05/08 10:57:29;;;;;;;0.70;0.60;;;;;;;;;;5073615;28;20441;-76
2022/05/08 10:59:56;;;;;;;0.70;0.50;;;;;;;;;;5073788;28;20505;-77
2022/05/08 11:02:42;;;;;;;0.80;0.70;;;;;;;;;;5071021;28;20439;-74
2022/05/08 11:05:09;;;;;;;0.93;0.80;;;;;;;;;;5056743;28;20443;-76
2022/05/08 11:07:37;;;;;;;0.70;0.53;;;;;;;;;;5073176;28;20524;-75
2022/05/08 11:10:13;;;;;;;0.90;0.80;;;;;;;;;;5072397;28;20454;-76
2022/05/08 11:12:54;;;;;;;0.80;0.60;;;;;;;;;;5061171;28;20455;-74
2022/05/08 11:15:23;;;;;;;0.70;0.60;;;;;;;;;;5066437;28;20975;-76
2022/05/08 11:18:09;;;;;;;0.73;0.60;;;;;;;;;;5053948;28;20408;-75
2022/05/08 11:20:37;;;;;;;0.70;0.60;;;;;;;;;;5069660;28;20883;-76
2022/05/08 11:23:04;;;;;;;0.70;0.50;;;;;;;;;;5055554;28;20435;-76
2022/05/08 11:25:31;;;;;;;0.70;0.60;;;;;;;;;;5072373;28;20784;-77
2022/05/08 11:27:58;;;;;;;0.70;0.60;;;;;;;;;;5070925;28;20975;-78
2022/05/08 11:30:32;;;;;;;0.80;0.80;;;;;;;;;;5074233;28;20500;-76
2022/05/08 11:36:19;;;;;;;0.70;0.60;;;;;;;;;;5081122;28;20431;-77
2022/05/08 11:38:42;;;;;;;0.70;0.60;;;;;;;;;;5067238;28;20977;-75
2022/05/08 11:41:10;;;;;;;0.73;0.70;;;;;;;;;;5072198;28;20431;-77
2022/05/08 11:43:41;;;;;;;0.70;0.60;;;;;;;;;;5093384;28;20499;-74
2022/05/08 11:46:13;;;;;;;0.70;0.60;;;;;;;;;;5093726;28;20419;-76
2022/05/08 11:48:41;;;;;;;0.70;0.60;;;;;;;;;;5072531;28;20423;-74
2022/05/08 11:51:08;;;;;;;0.70;0.60;;;;;;;;;;5055203;28;20625;-74
2022/05/08 11:53:38;;;;;;;0.70;0.60;;;;;;;;;;5055509;28;20461;-77
2022/05/08 11:56:21;;;;;;;0.70;0.60;;;;;;;;;;5072511;28;20428;-74
2022/05/08 11:58:48;;;;;;;0.70;0.60;;;;;;;;;;5072061;28;20518;-77
2022/05/08 12:01:24;;;;;;;0.70;0.60;;;;;;;;;;5088455;28;20435;-76
2022/05/08 12:03:50;;;;;;;0.70;0.60;;;;;;;;;;5055872;28;20458;-74
2022/05/08 12:06:18;;;;;;;0.70;0.60;;;;;;;;;;5072040;28;20459;-77
2022/05/08 12:08:50;;;;;;;0.70;0.60;;;;;;;;;;5088524;28;20805;-77
2022/05/08 12:11:30;;;;;;;0.70;0.50;;;;;;;;;;5054545;28;20451;-75
2022/05/08 12:14:04;;;;;;;0.70;0.60;;;;;;;;;;5064528;28;20442;-74
2022/05/08 12:16:33;;;;;;;0.90;0.60;;;;;;;;;;5069825;28;20518;-75
2022/05/08 12:19:12;;;;;;;0.70;0.60;;;;;;;;;;5070580;28;20404;-73
2022/05/08 12:21:39;;;;;;;0.70;0.50;;;;;;;;;;5054678;28;20454;-71
2022/05/08 12:24:09;;;;;;;0.77;0.60;;;;;;;;;;5074824;28;20794;-73
2022/05/08 12:26:36;;;;;;;0.70;0.60;;;;;;;;;;5071539;28;20493;-72
2022/05/08 12:29:05;;;;;;;0.70;0.60;;;;;;;;;;5071379;28;20529;-73
2022/05/08 12:31:33;;;;;;;0.77;0.60;;;;;;;;;;5070805;28;20443;-72
2022/05/08 12:34:01;;;;;;;0.80;0.70;;;;;;;;;;5069087;28;20427;-72
2022/05/08 12:36:27;;;;;;;0.70;0.60;;;;;;;;;;5067734;28;20443;-72
2022/05/08 12:38:54;;;;;;;0.80;0.60;;;;;;;;;;5070378;28;20853;-72
2022/05/08 12:41:21;;;;;;;0.70;0.60;;;;;;;;;;5073747;28;20508;-73
2022/05/08 12:43:48;;;;;;;0.80;0.70;;;;;;;;;;5076648;28;20476;-73
2022/05/08 12:46:15;;;;;;;0.80;0.73;;;;;;;;;;5076533;28;20435;-72
2022/05/08 12:48:43;;;;;;;0.70;0.70;;;;;;;;;;5076175;28;20443;-74
2022/05/08 12:51:12;;;;;;;0.80;0.70;;;;;;;;;;5075037;28;20455;-73
2022/05/08 12:53:41;;;;;;;0.70;0.60;;;;;;;;;;5073716;28;20443;-72
2022/05/08 12:56:08;;;;;;;0.70;0.60;;;;;;;;;;5074429;28;20435;-72
2022/05/08 13:01:21;;;;;;;0.70;0.60;;;;;;;;;;5076271;28;20415;-72
2022/05/08 13:03:50;;;;;;;0.70;0.50;;;;;;;;;;5091661;28;20485;-72
2022/05/08 13:06:16;;;;;;;0.80;0.60;;;;;;;;;;5058307;28;20808;-71
2022/05/08 13:08:43;;;;;;;0.70;0.50;;;;;;;;;;5074564;28;20469;-70
2022/05/08 13:11:11;;;;;;;0.80;0.60;;;;;;;;;;5061959;28;20477;-77
2022/05/08 13:13:43;;;;;;;0.80;0.60;;;;;;;;;;5075230;28;20443;-72
2022/05/08 13:16:14;;;;;;;0.70;0.50;;;;;;;;;;5057416;28;20947;-72
2022/05/08 13:18:41;;;;;;;0.70;0.50;;;;;;;;;;5091439;28;20423;-72
2022/05/08 13:21:13;;;;;;;0.70;0.53;;;;;;;;;;5075768;28;20514;-72
2022/05/08 13:24:02;;;;;;;0.70;0.50;;;;;;;;;;5073609;28;20442;-72
2022/05/08 13:26:29;;;;;;;0.70;0.60;;;;;;;;;;5074563;28;20439;-72
2022/05/08 13:28:56;;;;;;;0.70;0.50;;;;;;;;;;5074506;28;20435;-71
2022/05/08 13:31:23;;;;;;;0.70;0.60;;;;;;;;;;5057441;28;20872;-72
2022/05/08 13:33:51;;;;;;;0.70;0.50;;;;;;;;;;5072996;28;20446;-73
2022/05/08 13:36:19;;;;;;;0.70;0.50;;;;;;;;;;5091357;28;20491;-73
2022/05/08 13:38:47;;;;;;;0.70;0.53;;;;;;;;;;5074797;28;20435;-72
2022/05/08 13:41:14;;;;;;;0.80;0.80;;;;;;;;;;5091021;28;20438;-72
2022/05/08 13:43:41;;;;;;;0.70;0.50;;;;;;;;;;5091121;28;20458;-72
2022/05/08 13:46:08;;;;;;;0.73;0.60;;;;;;;;;;5072927;28;20439;-72
2022/05/08 13:48:37;;;;;;;1.37;0.80;;;;;;;;;;5084844;28;20482;-72
2022/05/08 13:51:04;;;;;;;1.93;1.07;;;;;;;;;;5074790;28;20588;-74
2022/05/08 13:53:32;;;;;;;0.70;0.50;;;;;;;;;;5073504;28;20412;-72
2022/05/08 13:56:02;;;;;;;0.83;0.83;;;;;;;;;;5074286;28;20435;-74
2022/05/08 13:58:32;;;;;;;0.70;0.50;;;;;;;;;;5091243;28;20427;-73
2022/05/08 14:00:59;;;;;;;0.80;0.60;;;;;;;;;;5074177;28;21030;-76
2022/05/08 14:03:26;;;;;;;0.70;0.60;;;;;;;;;;5075071;28;20814;-74
2022/05/08 14:05:55;;;;;;;0.70;0.50;;;;;;;;;;5072254;28;20467;-74
2022/05/08 14:08:24;;;;;;;0.70;0.60;;;;;;;;;;5051219;28;20462;-72
2022/05/08 14:10:54;;;;;;;0.70;0.60;;;;;;;;;;5073797;28;20465;-74
2022/05/08 14:13:21;;;;;;;0.80;0.60;;;;;;;;;;5078800;28;20957;-74
2022/05/08 14:15:48;;;;;;;0.70;0.50;;;;;;;;;;5074384;28;20439;-72
2022/05/08 14:18:16;;;;;;;0.70;0.60;;;;;;;;;;5055434;28;20450;-74
2022/05/08 14:20:43;;;;;;;0.80;0.60;;;;;;;;;;5090069;28;20482;-73
2022/05/08 14:23:11;;;;;;;0.80;0.60;;;;;;;;;;5056830;28;20877;-72
2022/05/08 14:25:38;;;;;;;0.70;0.50;;;;;;;;;;5074421;28;20442;-74
2022/05/08 14:28:07;;;;;;;0.70;0.60;;;;;;;;;;5072871;28;20582;-72
2022/05/08 14:30:34;;;;;;;0.70;0.50;;;;;;;;;;5074120;28;20465;-72
2022/05/08 14:36:02;;;;;;;0.70;0.60;;;;;;;;;;5073185;28;20864;-73
2022/05/08 14:38:29;;;;;;;0.90;0.70;;;;;;;;;;5056376;28;20478;-73
2022/05/08 14:40:57;;;;;;;0.70;0.60;;;;;;;;;;5056218;28;20427;-73
2022/05/08 14:43:26;;;;;;;0.70;0.50;;;;;;;;;;5062684;28;20454;-74
2022/05/08 14:45:52;;;;;;;0.70;0.60;;;;;;;;;;5069807;28;20546;-74
2022/05/08 14:48:21;;;;;;;0.70;0.50;;;;;;;;;;5072583;28;20986;-72
2022/05/08 14:50:48;;;;;;;0.70;0.60;;;;;;;;;;5073347;28;20447;-72
2022/05/08 14:53:17;;;;;;;0.70;0.60;;;;;;;;;;5075780;28;20479;-72
2022/05/08 14:55:47;;;;;;;0.73;0.60;;;;;;;;;;5072272;28;20527;-71
2022/05/08 14:58:15;;;;;;;0.70;0.60;;;;;;;;;;5054812;28;20400;-73
2022/05/08 15:00:45;;;;;;;0.80;0.70;;;;;;;;;;5070294;28;20424;-71
2022/05/08 15:03:13;;;;;;;0.70;0.60;;;;;;;;;;5077573;28;20480;-72
2022/05/08 15:05:42;;;;;;;0.70;0.60;;;;;;;;;;5072106;28;20954;-72
2022/05/08 15:08:10;;;;;;;0.70;0.60;;;;;;;;;;5072327;28;20512;-71
2022/05/08 15:10:38;;;;;;;0.70;0.57;;;;;;;;;;5072575;28;20530;-71
2022/05/08 15:13:05;;;;;;;0.70;0.50;;;;;;;;;;5072310;28;20442;-72
2022/05/08 15:15:32;;;;;;;0.70;0.50;;;;;;;;;;5057160;28;20446;-73
2022/05/08 15:20:53;;;;;;;0.80;0.70;;;;;;;;;;5065392;28;20443;-73
2022/05/08 15:23:24;;;;;;;0.70;0.60;;;;;;;;;;5071488;28;20469;-73
2022/05/08 15:25:51;;;;;;;0.77;0.70;;;;;;;;;;5071386;28;20435;-72
2022/05/08 15:28:17;;;;;;;0.70;0.60;;;;;;;;;;5072317;28;20539;-73
2022/05/08 15:30:47;;;;;;;0.70;0.60;;;;;;;;;;5071973;28;20447;-71